Terminal Aerodrome Forecast
Issued by NWS Tampa Bay Area, FL

Home | Current Version | Previous Version | Text Only | Print | Product List | Glossary On
Versions: 1 2 3 4 5 6 7 8 9 10 11 12 13 14 15 16 17 18
000
FTUS42 KTBW 211120
TAFSRQ
TAF
KSRQ 211120Z 2112/2212 VRB03KT P6SM VCTS SCT030CB BKN250
     FM211500 22005KT P6SM VCTS SCT030CB SCT250
     FM211800 25007KT P6SM VCTS SCT040CB BKN120
     FM220200 VRB03KT P6SM SCT250=

USA.gov is the U.S. government's official web portal to all federal, state and local government web resources and services.